Welcome to our Virtual Airline
Sign-in:

Flight MFC30961

  • Submitted By: Karl Klotz
  • Departure Airport: Lloyd R. Roundtree Seaplane Facility (63A)
  • Arrival Airport: Kake SPB (KAE)
  • Aircraft: BELL 412EP (N010MM )
  • Flight Time: 00.25.44
  • Date Submitted: 19/05/02
  • Route: STOP AT PORTAGE BAY DOCK (TF11)
  • Status: Accepted
Flight Details
Gross Revenue:
(3 load / $ 50.00 per unit
$ 150.00
Fuel Cost:
(20.4117 fuel used @ 5.1 / unit)
$ 104.10

Additional Log Information:

View Log

FS[04:23] ----- Flight Opened -----
FS[04:23] Cigar Box - 1.1.4.0
FS[04:23] FS: Prepar3D V4
FS[04:23] FSUIPC: v5,15
FS[04:23] Flight Number: MFC30961
FS[04:23] FS Aircraft: C185F SKYWAGON AMPHIBIAN
FS[04:23] FS Model: C185
FS[04:23] FS Type: Cessna
FS[04:23] Departure: 63A
FS[04:23] Arrival: KAE
FS[04:23] Flight Level: 2500
FS[04:23] Flight Type: H
FS[04:23] Passengers: 3
FS[04:23] FOB: 157 lbs
FS[04:23] Gate: n/a
FS[04:23] NOTE: Parking Brake Ignored
FS[04:23] Crash Detection: Disabled
FS[04:23] Engines: 1 Piston
FS[04:23] NOTE: Boarding has started
FS[04:23] Engine 1: Started
FS[04:23] Light Data: Navigation ON
FS[04:23] Light Data: Beacon ON
FS[04:23] Light Data: Strobe lights ON
FS[04:23] Main Door Closed
FS[04:23] COM1: 121.05
FS[04:23] COM2: 127.80
FS[04:23] Transponder: 1200
FS[04:23] NAV1: 115.90
FS[04:23] NAV2: 110.60
FS[04:23] ADF1: 396.0
FS[04:23] ADF2: 240.0
FS[04:23] Navigation Mode: NAV
FS[04:24] NOTE: Taxi started
FS[04:24] NOTE: ----- TAKE OFF -----
FS[04:24] GS: 68 knots
FS[04:24] TAS: 68 knots
FS[04:24] IAS: 68 knots
FS[04:24] VS: 6 fpm
FS[04:24] FOB: 157 lbs
FS[04:24] Heading: 266°
FS[04:24] Pitch: 4°
FS[04:24] Bank: 0°
FS[04:24] Aircraft Weight: 2262,48 lbs
FS[04:24] Nearest Airport: 63A
FS[04:24] Distance: 0,24 miles
FS[04:24] Runway: ???
FS[04:24] Ground Surface: Water
FS[04:24] Ground Condition: Normal
FS[04:24] NOTE: Weather Report
FS[04:24] Wind Heading: 341°
FS[04:24] Wind Speed: 0 knots
FS[04:24] OAT: 14° C
FS[04:24] TAT: 15° C
FS[04:24] Precipitation: None
FS[04:24] Dew Point: 4° C
FS[04:24] Visibility: 62 miles
FS[04:24] METAR: No METAR available for 63A.
FS[04:24] NOTE: Climb started
FS[04:24] View Mode: Virtual Cockpit
FS[04:24] Autopilot: Engaged
FS[04:24] AGL: 580 ft
FS[04:24] AMSL: 698 ft
FS[04:25] Recovery: Flight Saved
FS[04:28] Recovery: Flight Saved
FS[04:30] Autopilot: Disengaged
FS[04:30] AGL: 1387 ft
FS[04:30] AMSL: 1387 ft
FS[04:30] Recovery: Flight Saved
FS[04:31] Flaps: Position 1
FS[04:31] GS: 91 knots
FS[04:31] TAS: 93 knots
FS[04:31] IAS: 92 knots
FS[04:31] VS: -617 fpm
FS[04:31] Flaps: Position 2
FS[04:31] GS: 77 knots
FS[04:31] TAS: 78 knots
FS[04:31] IAS: 78 knots
FS[04:31] VS: -670 fpm
FS[04:31] Flaps: Position 3
FS[04:31] GS: 71 knots
FS[04:31] TAS: 72 knots
FS[04:31] IAS: 72 knots
FS[04:31] VS: -377 fpm
FS[04:31] Flaps: Position 4
FS[04:31] GS: 68 knots
FS[04:31] TAS: 68 knots
FS[04:31] IAS: 68 knots
FS[04:31] VS: -189 fpm
FS[04:32] NOTE: ----- LANDED -----
FS[04:32] Landing Rate: -118,42 fpm
FS[04:32] GS: 56 knots
FS[04:32] TAS: 56 knots
FS[04:32] IAS: 57 knots
FS[04:32] VS: -117 fpm
FS[04:32] FOB: 142 lbs
FS[04:32] Heading: 315°
FS[04:32] Pitch: 1°
FS[04:32] Bank: 0°
FS[04:32] Aircraft Weight: 2248,19 lbs
FS[04:32] Nearest Airport: TF11
FS[04:32] Distance: 0,60 miles
FS[04:32] Runway: ???
FS[04:32] Ground Surface: Water
FS[04:32] Ground Condition: Normal
FS[04:32] NOTE: Weather Report
FS[04:32] Wind Heading: 341°
FS[04:32] Wind Speed: 0 knots
FS[04:32] OAT: 14° C
FS[04:32] TAT: 15° C
FS[04:32] Precipitation: None
FS[04:32] Dew Point: 4° C
FS[04:32] Visibility: 62 miles
FS[04:32] METAR: KAEG 021647Z VRB05KT 10SM FEW060 16/01 A3012KAEJ 021655Z AUTO 00000KT 10SM SCT060 OVC070 07/M05 A3011 RMK AO2 T00701049KAEL 021656Z AUTO 29005KT 10SM BKN018 OVC023 08/06 A3016 RMK AO2KAEX 021653Z 17009KT 10SM FEW095 SCT120 21/19 A3002 RMK AO2 RAE44 PRESFR SLP169 P0001 T02110189
FS[04:32] View Mode: Virtual Cockpit
FS[04:32] NOTE: Taxi started
FS[04:32] Flaps: Position 2
FS[04:32] Flaps: Position 0
FS[04:33] View Mode: Virtual Cockpit
FS[04:34] Autopilot: Engaged
FS[04:34] AGL: 1000 ft
FS[04:34] AMSL: 1000 ft
FS[04:46] Recovery: Flight Saved
FS[04:46] Autopilot: Disengaged
FS[04:46] AGL: 980 ft
FS[04:46] AMSL: 980 ft
FS[04:46] Flaps: Position 1
FS[04:46] GS: 101 knots
FS[04:46] TAS: 101 knots
FS[04:46] IAS: 99 knots
FS[04:46] VS: -292 fpm
FS[04:47] Flaps: Position 2
FS[04:47] GS: 73 knots
FS[04:47] TAS: 74 knots
FS[04:47] IAS: 74 knots
FS[04:47] VS: -600 fpm
FS[04:48] Flaps: Position 3
FS[04:48] GS: 66 knots
FS[04:48] TAS: 67 knots
FS[04:48] IAS: 67 knots
FS[04:48] VS: -364 fpm
FS[04:48] Flaps: Position 4
FS[04:48] GS: 66 knots
FS[04:48] TAS: 66 knots
FS[04:48] IAS: 66 knots
FS[04:48] VS: -277 fpm
FS[04:48] NOTE: ----- LANDED -----
FS[04:48] Landing Rate: -42,29 fpm
FS[04:48] GS: 52 knots
FS[04:48] TAS: 54 knots
FS[04:48] IAS: 54 knots
FS[04:48] VS: -40 fpm
FS[04:48] FOB: 113 lbs
FS[04:48] Heading: 115°
FS[04:48] Pitch: 0°
FS[04:48] Bank: 0°
FS[04:48] Aircraft Weight: 2217,85 lbs
FS[04:48] Nearest Airport: KAE
FS[04:48] Distance: 0,60 miles
FS[04:48] Runway: 10 - PAFE
FS[04:48] Ground Surface: Water
FS[04:48] Ground Condition: Normal
FS[04:48] NOTE: Weather Report
FS[04:48] Wind Heading: 341°
FS[04:48] Wind Speed: 0 knots
FS[04:48] OAT: 14° C
FS[04:48] TAT: 15° C
FS[04:48] Precipitation: None
FS[04:48] Dew Point: 4° C
FS[04:48] Visibility: 62 miles
FS[04:48] METAR: KAEG 021647Z VRB05KT 10SM FEW060 16/01 A3012KAEJ 021655Z AUTO 00000KT 10SM SCT060 OVC070 07/M05 A3011 RMK AO2 T00701049KAEL 021656Z AUTO 29005KT 10SM BKN018 OVC023 08/06 A3016 RMK AO2KAEX 021653Z 17009KT 10SM FEW095 SCT120 21/19 A3002 RMK AO2 RAE44 PRESFR SLP169 P0001 T02110189
FS[04:48] View Mode: Virtual Cockpit
FS[04:49] Engine 1: Stopped
FS[04:49] Gate: n/a
FS[04:49] NOTE: Flight Completed
FS[04:49] FS Aircraft: C185F SKYWAGON AMPHIBIAN
FS[04:49] FS Model: C185
FS[04:49] FS Type: Cessna
FS[04:49] FOB: 113 lbs
FS[04:49] Fuel Used: 45 lbs
FS[04:49] Flight Time: 00:25:44
FS[04:49] Flight Time (Dawn): 00:00:00
FS[04:49] Flight Time (Day): 00:25:44
FS[04:49] Flight Time (Dusk): 00:00:00
FS[04:49] Flight Time (Night): 00:00:00
FS[04:49] Total Landings: 2
FS[04:49] MaxSim Rate: 0x
FS[04:49] Cigar Box - 1.1.4.0
FS[04:49] ----- Flight Closed -----

Route Map